AUA64EC LOWW-LKPR
Flight info
| Callsign | AUA64EC |
|---|---|
| Flight time | N/A |
| Altitude | 22000 |
| Route | LANUX4A/11 LANUX DCT VLM |
| Aircraft | A320/M-SDE3FGHIRWY/LB1 |
Departure
| Time | 2026-05-06 20:06 |
|---|---|
| Airport | Vienna International Airport (LOWW) |
Arrival
| Time | N/A |
|---|---|
| Airport | Václav Havel Airport Prague (LKPR) |
| Time | Latitude | Longitude | Altitude | Speed | Heading |
|---|---|---|---|---|---|
| 2026-05-06 19:38 | 48.12331 | 16.53828 | 622 ft | 1 kts | 296° |
| 2026-05-06 19:38 | 48.12334 | 16.53819 | 622 ft | 2 kts | 296° |
| 2026-05-06 19:38 | 48.12341 | 16.53797 | 623 ft | 3 kts | 296° |
| 2026-05-06 19:39 | 48.12348 | 16.53775 | 610 ft | 2 kts | 296° |
| 2026-05-06 19:39 | 48.12355 | 16.53756 | 616 ft | 2 kts | 296° |
| 2026-05-06 19:39 | 48.12361 | 16.53738 | 614 ft | 2 kts | 296° |
| 2026-05-06 19:39 | 48.12367 | 16.53717 | 617 ft | 2 kts | 296° |
| 2026-05-06 19:40 | 48.12372 | 16.53703 | 612 ft | 1 kts | 296° |
| 2026-05-06 19:40 | 48.12373 | 16.53700 | 615 ft | 1 kts | 296° |
| 2026-05-06 19:41 | 48.12375 | 16.53694 | 614 ft | 0 kts | 296° |
| 2026-05-06 19:41 | 48.12403 | 16.53608 | 615 ft | 10 kts | 295° |
| 2026-05-06 19:42 | 48.12417 | 16.53565 | 615 ft | 0 kts | 296° |
| 2026-05-06 19:57 | 48.12425 | 16.53540 | 619 ft | 5 kts | 296° |
| 2026-05-06 19:57 | 48.12426 | 16.53481 | 610 ft | 6 kts | 249° |
| 2026-05-06 19:57 | 48.12402 | 16.53444 | 610 ft | 4 kts | 211° |
| 2026-05-06 19:57 | 48.12385 | 16.53431 | 618 ft | 0 kts | 207° |
| 2026-05-06 20:00 | 48.12369 | 16.53419 | 616 ft | 7 kts | 206° |
| 2026-05-06 20:00 | 48.12300 | 16.53370 | 618 ft | 11 kts | 201° |
| 2026-05-06 20:01 | 48.12253 | 16.53424 | 613 ft | 7 kts | 114° |
| 2026-05-06 20:01 | 48.12252 | 16.53428 | 610 ft | 0 kts | 114° |
| 2026-05-06 20:05 | 48.12213 | 16.53551 | 619 ft | 45 kts | 117° |
| 2026-05-06 20:05 | 48.11977 | 16.54272 | 612 ft | 109 kts | 116° |
| 2026-05-06 20:06 | 48.11559 | 16.55528 | 639 ft | 156 kts | 122° |
| 2026-05-06 20:06 | 48.11107 | 16.56925 | 1341 ft | 144 kts | 122° |
| 2026-05-06 20:06 | 48.10647 | 16.58326 | 1726 ft | 157 kts | 123° |
| 2026-05-06 20:06 | 48.10121 | 16.59887 | 1918 ft | 179 kts | 124° |
| 2026-05-06 20:07 | 48.09660 | 16.61733 | 2111 ft | 207 kts | 103° |
| 2026-05-06 20:07 | 48.09991 | 16.63970 | 2329 ft | 238 kts | 64° |
| 2026-05-06 20:07 | 48.10954 | 16.66100 | 2581 ft | 256 kts | 60° |
| 2026-05-06 20:07 | 48.11913 | 16.68459 | 2815 ft | 273 kts | 64° |
| 2026-05-06 20:08 | 48.12866 | 16.71019 | 3073 ft | 290 kts | 65° |
| 2026-05-06 20:08 | 48.13841 | 16.73757 | 3612 ft | 303 kts | 65° |
| 2026-05-06 20:08 | 48.14868 | 16.76473 | 4549 ft | 306 kts | 55° |
| 2026-05-06 20:08 | 48.16484 | 16.78507 | 5488 ft | 306 kts | 24° |
| 2026-05-06 20:09 | 48.18507 | 16.79315 | 6452 ft | 300 kts | 1° |
| 2026-05-06 20:09 | 48.20574 | 16.79052 | 7246 ft | 299 kts | 343° |
| 2026-05-06 20:09 | 48.22606 | 16.78353 | 8102 ft | 301 kts | 343° |
| 2026-05-06 20:09 | 48.24652 | 16.77637 | 9009 ft | 302 kts | 343° |
| 2026-05-06 20:10 | 48.26707 | 16.76911 | 9789 ft | 308 kts | 343° |
| 2026-05-06 20:10 | 48.27389 | 16.76671 | 9996 ft | 311 kts | 343° |
| 2026-05-06 20:11 | 48.35795 | 16.73071 | 11526 ft | 363 kts | 329° |
| 2026-05-06 20:11 | 48.37285 | 16.71907 | 11981 ft | 366 kts | 329° |
| 2026-05-06 20:11 | 48.39573 | 16.70116 | 12686 ft | 371 kts | 329° |
| 2026-05-06 20:11 | 48.42402 | 16.67296 | 13593 ft | 370 kts | 314° |
| 2026-05-06 20:12 | 48.44159 | 16.64487 | 14217 ft | 368 kts | 303° |
| 2026-05-06 20:12 | 48.45498 | 16.61228 | 14868 ft | 365 kts | 291° |
| 2026-05-06 20:12 | 48.46366 | 16.57970 | 15460 ft | 364 kts | 286° |
| 2026-05-06 20:12 | 48.47245 | 16.54382 | 16102 ft | 367 kts | 286° |
| 2026-05-06 20:13 | 48.47835 | 16.51984 | 16529 ft | 369 kts | 286° |
| 2026-05-06 20:13 | 48.48427 | 16.49581 | 16950 ft | 371 kts | 286° |
| 2026-05-06 20:13 | 48.48730 | 16.48355 | 17159 ft | 372 kts | 286° |